Time;durP1;ratioP1;P1;durP2;ratioP2;P2;SDS_P1;SDS_P2;PMS_P1;PMS_P2;Temp;Humidity;BMP_temperature;BMP_pressure;BME280_temperature;BME280_humidity;BME280_pressure;Samples;Min_cycle;Max_cycle;Signal;HPM_P1;HPM_P2
2021/09/12 00:02:09;;;;;;;10.15;8.02;;;;;;;;;;4982608;28;20025;-65
2021/09/12 00:04:39;;;;;;;15.32;8.43;;;;;;;;;;4980039;28;20035;-65
2021/09/12 00:07:05;;;;;;;14.45;8.55;;;;;;;;;;4983172;28;20368;-65
2021/09/12 00:09:30;;;;;;;12.63;8.75;;;;;;;;;;4984133;28;20030;-64
2021/09/12 00:11:56;;;;;;;15.50;8.30;;;;;;;;;;4973483;28;20452;-64
2021/09/12 00:14:21;;;;;;;14.25;8.50;;;;;;;;;;4983296;28;20030;-64
2021/09/12 00:16:47;;;;;;;13.50;8.75;;;;;;;;;;4984095;28;20034;-64
2021/09/12 00:19:13;;;;;;;12.50;9.02;;;;;;;;;;4982402;28;20396;-66
2021/09/12 00:21:38;;;;;;;15.27;8.48;;;;;;;;;;4983736;28;20511;-65
2021/09/12 00:24:04;;;;;;;13.70;8.20;;;;;;;;;;4983602;28;20034;-65
2021/09/12 00:26:29;;;;;;;11.98;8.48;;;;;;;;;;4989048;28;20070;-66
2021/09/12 00:28:54;;;;;;;12.02;7.88;;;;;;;;;;4985200;28;20050;-67
2021/09/12 00:31:20;;;;;;;12.75;7.97;;;;;;;;;;5002572;28;20452;-64
2021/09/12 00:33:45;;;;;;;10.57;7.53;;;;;;;;;;5001963;28;20042;-65
2021/09/12 00:36:11;;;;;;;13.02;8.40;;;;;;;;;;4986053;28;20026;-65
2021/09/12 00:38:36;;;;;;;10.93;7.93;;;;;;;;;;5001760;28;20029;-64
2021/09/12 00:41:02;;;;;;;13.60;9.07;;;;;;;;;;5002509;28;20034;-65
2021/09/12 00:43:27;;;;;;;12.57;8.60;;;;;;;;;;5003275;28;20030;-64
2021/09/12 00:45:53;;;;;;;14.10;9.18;;;;;;;;;;5001336;28;20022;-65
2021/09/12 00:48:19;;;;;;;14.20;9.23;;;;;;;;;;5002709;28;20148;-65
2021/09/12 00:50:45;;;;;;;11.38;7.22;;;;;;;;;;5002676;28;20477;-64
2021/09/12 00:53:11;;;;;;;15.38;7.97;;;;;;;;;;5007983;28;20038;-64
2021/09/12 00:55:38;;;;;;;10.52;7.97;;;;;;;;;;5002980;28;20028;-65
2021/09/12 00:58:03;;;;;;;9.63;7.82;;;;;;;;;;5001188;28;20049;-65
2021/09/12 01:00:29;;;;;;;11.20;8.02;;;;;;;;;;5000639;28;20429;-65
2021/09/12 01:02:54;;;;;;;11.77;8.32;;;;;;;;;;4998261;28;20551;-65
2021/09/12 01:05:20;;;;;;;10.35;7.97;;;;;;;;;;5002374;28;20034;-65
2021/09/12 01:07:46;;;;;;;13.05;8.20;;;;;;;;;;5002751;28;20069;-65
2021/09/12 01:10:12;;;;;;;10.13;7.78;;;;;;;;;;5000948;28;20034;-65
2021/09/12 01:12:38;;;;;;;9.95;7.68;;;;;;;;;;4988852;28;20026;-65
2021/09/12 01:15:04;;;;;;;8.75;7.20;;;;;;;;;;5006290;28;20026;-65
2021/09/12 01:17:30;;;;;;;11.40;7.40;;;;;;;;;;5005091;28;20032;-64
2021/09/12 01:19:56;;;;;;;11.07;7.47;;;;;;;;;;5006911;28;20014;-64
2021/09/12 01:22:21;;;;;;;10.45;7.53;;;;;;;;;;5006028;28;20540;-64
2021/09/12 01:24:47;;;;;;;12.90;7.82;;;;;;;;;;5005415;28;20040;-65
2021/09/12 01:27:13;;;;;;;11.82;7.80;;;;;;;;;;5006993;28;20028;-65
2021/09/12 01:29:38;;;;;;;9.68;7.35;;;;;;;;;;4986424;28;20092;-66
2021/09/12 01:32:04;;;;;;;13.80;8.10;;;;;;;;;;4996011;28;20049;-66
2021/09/12 01:34:29;;;;;;;9.50;8.27;;;;;;;;;;4986488;28;20042;-65
2021/09/12 01:36:55;;;;;;;9.65;8.20;;;;;;;;;;4996018;28;20029;-65
2021/09/12 01:39:21;;;;;;;11.30;8.38;;;;;;;;;;5010972;28;20064;-65
2021/09/12 01:41:46;;;;;;;11.43;8.32;;;;;;;;;;4995853;28;20010;-65
2021/09/12 01:44:12;;;;;;;11.57;8.20;;;;;;;;;;4995802;28;20030;-65
2021/09/12 01:46:46;;;;;;;10.18;7.93;;;;;;;;;;4995815;28;20030;-64
2021/09/12 01:49:11;;;;;;;13.23;8.93;;;;;;;;;;4986532;28;20039;-64
2021/09/12 01:51:37;;;;;;;12.63;9.93;;;;;;;;;;4995478;28;20033;-65
2021/09/12 01:54:02;;;;;;;14.32;8.95;;;;;;;;;;4995478;28;20056;-65
2021/09/12 01:56:28;;;;;;;11.50;8.80;;;;;;;;;;4995322;28;20023;-65
2021/09/12 01:58:53;;;;;;;16.77;8.95;;;;;;;;;;4995605;28;20125;-65
2021/09/12 02:01:19;;;;;;;15.40;11.00;;;;;;;;;;4986261;28;20014;-65
2021/09/12 02:03:45;;;;;;;12.82;10.18;;;;;;;;;;4995550;28;20038;-65
2021/09/12 02:06:11;;;;;;;15.85;9.95;;;;;;;;;;4995347;28;20022;-65
2021/09/12 02:08:36;;;;;;;13.23;9.40;;;;;;;;;;4995480;28;20163;-64
2021/09/12 02:11:02;;;;;;;15.90;9.35;;;;;;;;;;4995547;28;20536;-66
2021/09/12 02:13:27;;;;;;;13.10;9.52;;;;;;;;;;4995354;28;20425;-65
2021/09/12 02:15:53;;;;;;;12.10;9.25;;;;;;;;;;4995187;28;20049;-65
2021/09/12 02:18:18;;;;;;;11.63;9.02;;;;;;;;;;4995257;28;20239;-66
2021/09/12 02:20:44;;;;;;;12.35;9.32;;;;;;;;;;4995249;28;20358;-65
2021/09/12 02:23:09;;;;;;;14.93;9.15;;;;;;;;;;4994656;28;20056;-66
2021/09/12 02:25:35;;;;;;;11.30;8.75;;;;;;;;;;4995173;28;20017;-65
2021/09/12 02:28:01;;;;;;;10.65;8.80;;;;;;;;;;5008352;28;20481;-66
2021/09/12 02:30:27;;;;;;;16.30;9.50;;;;;;;;;;5003504;28;20105;-66
2021/09/12 02:32:53;;;;;;;14.88;9.38;;;;;;;;;;5010414;28;20436;-65
2021/09/12 02:35:18;;;;;;;10.98;9.00;;;;;;;;;;4987631;28;20384;-65
2021/09/12 02:37:43;;;;;;;13.10;8.98;;;;;;;;;;5010548;28;20069;-66
2021/09/12 02:40:09;;;;;;;11.25;8.70;;;;;;;;;;4986200;28;20030;-65
2021/09/12 02:42:35;;;;;;;10.95;8.85;;;;;;;;;;5001091;28;20063;-65
2021/09/12 02:45:00;;;;;;;12.27;8.98;;;;;;;;;;5011563;28;20456;-65
2021/09/12 02:47:26;;;;;;;10.55;9.02;;;;;;;;;;5005030;28;20037;-69
2021/09/12 02:49:51;;;;;;;15.02;9.32;;;;;;;;;;5002860;28;20101;-67
2021/09/12 02:52:17;;;;;;;11.93;9.20;;;;;;;;;;4987633;28;20018;-68
2021/09/12 02:54:42;;;;;;;10.48;8.40;;;;;;;;;;5004087;28;20054;-67
2021/09/12 02:57:07;;;;;;;10.32;8.27;;;;;;;;;;5003488;28;20112;-67
2021/09/12 02:59:33;;;;;;;10.20;8.70;;;;;;;;;;5005129;28;20010;-67
2021/09/12 03:01:58;;;;;;;12.15;9.02;;;;;;;;;;5003909;28;20053;-67
2021/09/12 03:04:24;;;;;;;10.30;9.25;;;;;;;;;;5003883;28;20021;-65
2021/09/12 03:06:52;;;;;;;11.57;8.63;;;;;;;;;;5005119;28;20064;-64
2021/09/12 03:09:17;;;;;;;9.80;8.45;;;;;;;;;;4985807;28;20018;-64
2021/09/12 03:11:45;;;;;;;11.23;8.65;;;;;;;;;;5003781;28;20460;-64
2021/09/12 03:14:10;;;;;;;12.13;8.82;;;;;;;;;;5004965;28;20040;-65
2021/09/12 03:16:36;;;;;;;10.40;8.70;;;;;;;;;;5003020;28;20105;-65
2021/09/12 03:19:02;;;;;;;10.20;9.07;;;;;;;;;;5003925;28;20100;-65
2021/09/12 03:21:27;;;;;;;13.10;9.85;;;;;;;;;;5004503;28;20030;-65
2021/09/12 03:23:52;;;;;;;14.73;10.45;;;;;;;;;;5002717;28;20385;-66
2021/09/12 03:26:18;;;;;;;15.00;10.38;;;;;;;;;;5004108;28;20476;-65
2021/09/12 03:28:43;;;;;;;12.52;10.23;;;;;;;;;;4982152;28;20046;-66
2021/09/12 03:31:09;;;;;;;13.40;10.05;;;;;;;;;;4983389;28;20030;-66
2021/09/12 03:33:35;;;;;;;11.73;9.77;;;;;;;;;;4985280;28;20039;-66
2021/09/12 03:36:00;;;;;;;13.52;10.40;;;;;;;;;;4984485;28;20119;-66
2021/09/12 03:38:26;;;;;;;12.25;9.70;;;;;;;;;;4985129;28;20018;-67
2021/09/12 03:40:51;;;;;;;12.52;10.20;;;;;;;;;;4985956;28;20489;-66
2021/09/12 03:43:17;;;;;;;14.13;11.18;;;;;;;;;;4983949;28;20054;-66
2021/09/12 03:45:43;;;;;;;13.05;10.77;;;;;;;;;;4985479;28;20065;-66
2021/09/12 03:48:08;;;;;;;14.93;9.93;;;;;;;;;;4975872;28;20484;-66
2021/09/12 03:50:34;;;;;;;15.48;10.20;;;;;;;;;;4983726;28;20033;-66
2021/09/12 03:52:59;;;;;;;13.10;10.35;;;;;;;;;;4985546;28;20420;-66
2021/09/12 03:55:25;;;;;;;14.27;9.65;;;;;;;;;;4984456;28;20019;-65
2021/09/12 03:57:50;;;;;;;13.23;9.65;;;;;;;;;;4984131;28;20065;-65
2021/09/12 04:00:17;;;;;;;12.02;9.88;;;;;;;;;;4984251;28;20062;-66
2021/09/12 04:02:42;;;;;;;15.25;9.68;;;;;;;;;;4984062;28;20026;-65
2021/09/12 04:05:08;;;;;;;13.45;9.35;;;;;;;;;;4983742;28;20023;-65
2021/09/12 04:07:34;;;;;;;11.60;9.10;;;;;;;;;;4986144;28;20045;-66
2021/09/12 04:09:59;;;;;;;11.85;9.77;;;;;;;;;;4994967;28;20041;-64
2021/09/12 04:12:25;;;;;;;13.98;10.15;;;;;;;;;;4994888;28;20015;-65
2021/09/12 04:14:52;;;;;;;12.63;9.80;;;;;;;;;;4994258;28;20117;-65
2021/09/12 04:17:18;;;;;;;11.98;10.07;;;;;;;;;;4994635;28;20084;-65
2021/09/12 04:19:44;;;;;;;12.27;10.10;;;;;;;;;;4994535;28;20540;-65
2021/09/12 04:22:09;;;;;;;13.95;9.80;;;;;;;;;;4994682;28;20022;-65
2021/09/12 04:24:35;;;;;;;10.60;9.32;;;;;;;;;;4993367;28;20099;-66
2021/09/12 04:27:00;;;;;;;11.75;9.98;;;;;;;;;;4994428;28;20104;-66
2021/09/12 04:29:26;;;;;;;12.10;9.85;;;;;;;;;;4992909;28;20085;-65
2021/09/12 04:31:51;;;;;;;13.80;10.75;;;;;;;;;;4977317;28;20034;-65
2021/09/12 04:34:18;;;;;;;14.35;10.55;;;;;;;;;;4994219;28;20042;-64
2021/09/12 04:36:43;;;;;;;18.85;11.32;;;;;;;;;;4994051;28;20109;-65
2021/09/12 04:39:09;;;;;;;12.90;10.90;;;;;;;;;;4976751;28;20065;-65
2021/09/12 04:41:35;;;;;;;14.73;11.68;;;;;;;;;;4993855;28;20052;-64
2021/09/12 04:44:00;;;;;;;14.50;10.38;;;;;;;;;;4993975;28;20030;-65
2021/09/12 04:46:26;;;;;;;16.58;9.75;;;;;;;;;;4993920;28;20026;-65
2021/09/12 04:48:51;;;;;;;15.07;10.57;;;;;;;;;;4994039;28;20026;-65
2021/09/12 04:51:17;;;;;;;13.40;10.70;;;;;;;;;;4993992;28;20029;-65
2021/09/12 04:53:42;;;;;;;12.18;10.68;;;;;;;;;;4976648;28;20109;-65
2021/09/12 04:56:08;;;;;;;12.75;9.98;;;;;;;;;;4994032;28;20026;-66
2021/09/12 04:58:33;;;;;;;15.07;10.70;;;;;;;;;;4976607;28;20026;-64
2021/09/12 05:00:59;;;;;;;12.27;10.43;;;;;;;;;;4993045;28;20017;-64
2021/09/12 05:03:24;;;;;;;13.63;10.32;;;;;;;;;;4993759;28;20049;-66
2021/09/12 05:05:50;;;;;;;14.15;10.63;;;;;;;;;;4993894;28;20113;-66
2021/09/12 05:08:15;;;;;;;13.20;10.32;;;;;;;;;;4993183;28;20069;-65
2021/09/12 05:10:41;;;;;;;16.67;11.35;;;;;;;;;;4984075;28;20033;-64
2021/09/12 05:13:06;;;;;;;17.02;11.32;;;;;;;;;;4992042;28;20500;-64
2021/09/12 05:15:32;;;;;;;14.05;11.57;;;;;;;;;;4993118;28;20105;-64
2021/09/12 05:17:58;;;;;;;15.02;11.60;;;;;;;;;;5008166;28;20389;-64
2021/09/12 05:20:24;;;;;;;13.02;10.75;;;;;;;;;;4993276;28;20052;-64
2021/09/12 05:22:49;;;;;;;14.45;10.50;;;;;;;;;;4993325;28;20037;-64
2021/09/12 05:25:15;;;;;;;16.58;11.77;;;;;;;;;;4993126;28;20014;-66
2021/09/12 05:27:41;;;;;;;16.60;11.43;;;;;;;;;;4983838;28;20029;-65
2021/09/12 05:30:06;;;;;;;12.80;10.88;;;;;;;;;;4983599;28;20062;-65
2021/09/12 05:32:32;;;;;;;14.82;10.80;;;;;;;;;;4993262;28;20101;-66
2021/09/12 05:34:57;;;;;;;15.80;11.20;;;;;;;;;;4993168;28;20153;-65
2021/09/12 05:37:23;;;;;;;15.55;11.85;;;;;;;;;;4983918;28;20117;-65
2021/09/12 05:39:48;;;;;;;17.52;12.65;;;;;;;;;;4983608;28;20105;-66
2021/09/12 05:42:14;;;;;;;16.05;12.02;;;;;;;;;;4993154;28;20030;-66
2021/09/12 05:44:40;;;;;;;14.07;11.55;;;;;;;;;;4992622;28;20029;-66
2021/09/12 05:47:05;;;;;;;15.57;12.20;;;;;;;;;;4983388;28;20432;-66
2021/09/12 05:49:31;;;;;;;18.88;12.38;;;;;;;;;;4992829;28;20018;-65
2021/09/12 05:51:56;;;;;;;18.88;12.63;;;;;;;;;;4993099;28;20030;-65
2021/09/12 05:54:22;;;;;;;18.77;13.68;;;;;;;;;;4992884;28;20453;-65
2021/09/12 05:56:48;;;;;;;17.60;13.52;;;;;;;;;;4993518;28;20030;-65
2021/09/12 05:59:13;;;;;;;18.63;13.45;;;;;;;;;;4996970;28;20024;-65
2021/09/12 06:01:39;;;;;;;18.52;13.07;;;;;;;;;;4991849;28;20038;-65
2021/09/12 06:04:04;;;;;;;19.73;13.32;;;;;;;;;;4994383;28;20041;-65
2021/09/12 06:06:30;;;;;;;18.25;13.93;;;;;;;;;;4992568;28;20034;-65
2021/09/12 06:08:55;;;;;;;18.02;12.95;;;;;;;;;;4993666;28;20544;-65
2021/09/12 06:11:21;;;;;;;19.50;13.25;;;;;;;;;;4993515;28;20030;-65
2021/09/12 06:13:47;;;;;;;19.25;13.73;;;;;;;;;;4993091;28;20113;-65
2021/09/12 06:16:12;;;;;;;16.63;12.52;;;;;;;;;;4993491;28;20034;-65
2021/09/12 06:18:38;;;;;;;17.13;12.70;;;;;;;;;;4993511;28;20030;-65
2021/09/12 06:21:04;;;;;;;16.83;13.32;;;;;;;;;;4993458;28;20106;-65
2021/09/12 06:23:31;;;;;;;23.02;13.80;;;;;;;;;;4993405;28;20037;-65
2021/09/12 06:25:56;;;;;;;15.63;12.55;;;;;;;;;;4991654;28;20045;-65
2021/09/12 06:28:22;;;;;;;17.27;13.02;;;;;;;;;;4993691;28;20034;-65
2021/09/12 06:30:48;;;;;;;18.85;12.75;;;;;;;;;;4988724;28;20061;-65
2021/09/12 06:33:13;;;;;;;18.50;12.55;;;;;;;;;;4992651;28;20037;-65
2021/09/12 06:35:39;;;;;;;16.23;13.10;;;;;;;;;;4993072;28;20049;-65
2021/09/12 06:38:04;;;;;;;19.98;13.77;;;;;;;;;;4993023;28;20109;-64
2021/09/12 06:40:31;;;;;;;16.65;12.65;;;;;;;;;;4993479;28;20069;-64
2021/09/12 06:42:58;;;;;;;18.52;13.57;;;;;;;;;;4993249;28;20026;-64
2021/09/12 06:45:25;;;;;;;17.90;13.48;;;;;;;;;;4992374;28;20027;-64
2021/09/12 06:47:50;;;;;;;16.55;13.00;;;;;;;;;;4992316;28;20488;-64
2021/09/12 06:50:16;;;;;;;18.80;13.50;;;;;;;;;;4992353;28;20042;-64
2021/09/12 06:52:41;;;;;;;17.95;14.23;;;;;;;;;;4991926;28;20025;-64
2021/09/12 06:55:07;;;;;;;18.15;13.80;;;;;;;;;;4992143;28;20112;-64
2021/09/12 06:57:32;;;;;;;21.77;15.23;;;;;;;;;;4991914;28;20041;-64
2021/09/12 07:00:08;;;;;;;23.95;14.20;;;;;;;;;;4992572;28;20030;-65
2021/09/12 07:02:37;;;;;;;22.33;15.30;;;;;;;;;;4992829;28;20049;-65
2021/09/12 07:05:03;;;;;;;23.75;16.50;;;;;;;;;;4992562;28;20461;-65
2021/09/12 07:07:29;;;;;;;21.27;15.38;;;;;;;;;;4992269;28;20066;-65
2021/09/12 07:09:55;;;;;;;23.67;15.90;;;;;;;;;;4991160;28;20057;-65
2021/09/12 07:12:20;;;;;;;26.15;17.05;;;;;;;;;;4991593;28;20038;-63
2021/09/12 07:14:46;;;;;;;26.40;18.20;;;;;;;;;;4992697;28;20034;-67
2021/09/12 07:17:13;;;;;;;21.63;16.05;;;;;;;;;;4991384;28;20030;-67
2021/09/12 07:19:38;;;;;;;28.55;18.02;;;;;;;;;;4992532;28;20019;-67
2021/09/12 07:22:04;;;;;;;25.55;16.70;;;;;;;;;;4990834;28;20041;-68
2021/09/12 07:24:29;;;;;;;23.30;16.65;;;;;;;;;;4992986;28;20650;-67
2021/09/12 07:26:56;;;;;;;24.13;16.20;;;;;;;;;;4992728;28;20030;-68
2021/09/12 07:29:22;;;;;;;26.08;15.38;;;;;;;;;;4993538;28;20397;-68
2021/09/12 07:31:48;;;;;;;23.20;15.23;;;;;;;;;;4995294;28;20069;-68
2021/09/12 07:34:15;;;;;;;23.75;16.23;;;;;;;;;;4995541;28;20112;-68
2021/09/12 07:36:41;;;;;;;23.98;16.30;;;;;;;;;;4995315;28;20027;-68
2021/09/12 07:39:06;;;;;;;24.67;15.95;;;;;;;;;;4995215;28;20077;-68
2021/09/12 07:41:32;;;;;;;22.10;13.25;;;;;;;;;;4995214;28;20026;-68
2021/09/12 07:43:57;;;;;;;25.13;16.17;;;;;;;;;;4995264;28;20017;-68
2021/09/12 07:46:23;;;;;;;23.40;17.20;;;;;;;;;;4995151;28;20081;-68
2021/09/12 07:48:49;;;;;;;24.08;15.50;;;;;;;;;;4977325;28;20026;-68
2021/09/12 07:51:14;;;;;;;23.60;14.60;;;;;;;;;;4993184;28;20041;-68
2021/09/12 07:53:40;;;;;;;26.88;15.95;;;;;;;;;;4994895;28;20034;-68
2021/09/12 07:56:06;;;;;;;21.83;15.25;;;;;;;;;;4977700;28;20030;-68
2021/09/12 07:58:31;;;;;;;26.92;15.25;;;;;;;;;;4994841;28;20077;-68
2021/09/12 08:00:57;;;;;;;26.30;16.98;;;;;;;;;;4970454;28;20038;-68
2021/09/12 08:03:22;;;;;;;27.48;17.05;;;;;;;;;;4975499;28;20047;-68
2021/09/12 08:05:48;;;;;;;28.58;16.60;;;;;;;;;;4975256;28;20062;-68
2021/09/12 08:08:14;;;;;;;26.83;15.02;;;;;;;;;;4958035;28;20428;-68
2021/09/12 08:10:40;;;;;;;25.38;15.55;;;;;;;;;;4975292;28;20034;-68
2021/09/12 08:13:05;;;;;;;24.42;14.73;;;;;;;;;;4941956;28;20023;-68
2021/09/12 08:15:31;;;;;;;25.52;15.18;;;;;;;;;;4958098;28;20397;-68
2021/09/12 08:17:56;;;;;;;21.02;14.40;;;;;;;;;;4958122;28;20022;-68
2021/09/12 08:20:22;;;;;;;20.77;14.50;;;;;;;;;;4957398;28;20120;-68
2021/09/12 08:22:47;;;;;;;22.60;14.40;;;;;;;;;;4975541;28;20027;-68
2021/09/12 08:25:13;;;;;;;21.55;14.07;;;;;;;;;;4974881;28;20038;-68
2021/09/12 08:27:38;;;;;;;23.67;14.77;;;;;;;;;;4957822;28;20023;-68
2021/09/12 08:30:05;;;;;;;20.65;13.95;;;;;;;;;;4959095;28;20058;-68
2021/09/12 08:32:30;;;;;;;17.73;12.68;;;;;;;;;;4975564;28;20400;-68
2021/09/12 08:35:02;;;;;;;19.58;12.68;;;;;;;;;;4974798;28;20031;-68
2021/09/12 08:37:28;;;;;;;15.75;11.70;;;;;;;;;;4975029;28;20027;-68
2021/09/12 08:39:53;;;;;;;18.85;13.18;;;;;;;;;;4974843;28;20065;-68
2021/09/12 08:42:20;;;;;;;15.48;10.93;;;;;;;;;;4974011;28;20031;-68
2021/09/12 08:44:47;;;;;;;14.02;10.65;;;;;;;;;;4974483;28;20030;-68
2021/09/12 08:47:13;;;;;;;16.10;11.82;;;;;;;;;;4974798;28;20039;-68
2021/09/12 08:49:38;;;;;;;17.85;11.27;;;;;;;;;;4974814;28;20045;-68
2021/09/12 08:52:04;;;;;;;14.95;10.50;;;;;;;;;;4974771;28;20088;-68
2021/09/12 08:54:29;;;;;;;15.52;10.82;;;;;;;;;;4974681;28;20041;-68
2021/09/12 08:56:55;;;;;;;13.18;9.52;;;;;;;;;;4974642;28;20500;-68
2021/09/12 08:59:25;;;;;;;12.38;9.57;;;;;;;;;;4973214;28;20014;-68
2021/09/12 09:01:52;;;;;;;13.95;10.07;;;;;;;;;;4973849;28;20555;-68
2021/09/12 09:04:19;;;;;;;12.30;9.82;;;;;;;;;;4974413;28;20034;-64
2021/09/12 09:06:45;;;;;;;11.40;10.20;;;;;;;;;;4974677;28;20038;-68
2021/09/12 09:09:10;;;;;;;12.90;10.55;;;;;;;;;;4974646;28;20019;-68
2021/09/12 09:11:40;;;;;;;13.63;10.45;;;;;;;;;;4973822;28;20386;-67
2021/09/12 09:14:12;;;;;;;11.73;9.47;;;;;;;;;;4973822;28;20082;-67
2021/09/12 09:16:37;;;;;;;11.45;8.75;;;;;;;;;;4974366;28;20533;-67
2021/09/12 09:19:03;;;;;;;9.65;8.25;;;;;;;;;;4974449;28;20094;-67
2021/09/12 09:21:33;;;;;;;9.10;8.18;;;;;;;;;;4974483;28;20039;-68
2021/09/12 09:24:04;;;;;;;10.82;8.45;;;;;;;;;;4974767;28;20054;-68
2021/09/12 09:26:30;;;;;;;11.65;8.25;;;;;;;;;;4973606;28;20030;-68
2021/09/12 09:28:55;;;;;;;8.27;7.47;;;;;;;;;;4974310;28;20017;-68
2021/09/12 09:31:27;;;;;;;10.57;7.65;;;;;;;;;;4989554;28;20065;-68
2021/09/12 09:33:53;;;;;;;7.97;7.18;;;;;;;;;;4997302;28;20038;-68
2021/09/12 09:36:19;;;;;;;7.10;6.45;;;;;;;;;;4997479;28;20026;-68
2021/09/12 09:38:46;;;;;;;6.65;5.80;;;;;;;;;;4997224;28;20022;-68
2021/09/12 09:41:19;;;;;;;6.38;5.85;;;;;;;;;;4997639;28;20385;-68
2021/09/12 09:43:49;;;;;;;6.97;6.32;;;;;;;;;;4997290;28;20030;-68
2021/09/12 09:46:28;;;;;;;8.10;6.38;;;;;;;;;;4997106;28;20381;-68
2021/09/12 09:48:54;;;;;;;7.93;6.47;;;;;;;;;;4996298;28;20154;-67
2021/09/12 09:51:21;;;;;;;7.40;6.80;;;;;;;;;;4997348;28;20046;-63
2021/09/12 09:53:46;;;;;;;6.65;6.05;;;;;;;;;;4997339;28;20421;-63
2021/09/12 09:56:12;;;;;;;7.10;6.40;;;;;;;;;;4996668;28;20029;-63
2021/09/12 09:58:38;;;;;;;7.40;6.70;;;;;;;;;;4996423;28;20022;-63
2021/09/12 10:01:03;;;;;;;7.18;5.85;;;;;;;;;;4997115;28;20472;-63
2021/09/12 10:03:29;;;;;;;5.90;5.38;;;;;;;;;;4979422;28;20043;-64
2021/09/12 10:05:55;;;;;;;6.20;5.70;;;;;;;;;;4996951;28;20113;-63
2021/09/12 10:08:20;;;;;;;6.30;5.80;;;;;;;;;;4979763;28;20476;-63
2021/09/12 10:10:46;;;;;;;6.10;5.53;;;;;;;;;;4997264;28;20469;-64
2021/09/12 10:13:12;;;;;;;6.35;5.85;;;;;;;;;;4996939;28;20117;-64
2021/09/12 10:15:41;;;;;;;5.32;4.82;;;;;;;;;;4996978;28;20030;-63
2021/09/12 10:18:11;;;;;;;6.22;5.68;;;;;;;;;;4995715;28;20113;-63
2021/09/12 10:20:37;;;;;;;5.40;5.00;;;;;;;;;;4996195;28;20034;-63
2021/09/12 10:23:04;;;;;;;6.50;5.90;;;;;;;;;;4996618;28;20018;-64
2021/09/12 10:25:33;;;;;;;6.32;5.72;;;;;;;;;;4996653;28;20370;-63
2021/09/12 10:28:03;;;;;;;6.40;5.93;;;;;;;;;;4995978;28;20428;-63
2021/09/12 10:30:37;;;;;;;6.82;6.25;;;;;;;;;;5004869;28;20037;-63
2021/09/12 10:33:09;;;;;;;6.63;6.03;;;;;;;;;;5016213;28;20421;-63
2021/09/12 10:35:38;;;;;;;7.30;6.53;;;;;;;;;;5016111;28;20053;-63
2021/09/12 10:38:08;;;;;;;8.50;7.60;;;;;;;;;;5016072;28;20018;-64
2021/09/12 10:40:49;;;;;;;7.00;6.30;;;;;;;;;;5015891;28;20025;-63
2021/09/12 10:43:18;;;;;;;;;;;;;;;;;;5015843;28;20404;-64
2021/09/12 10:45:44;;;;;;;7.28;6.55;;;;;;;;;;5014376;28;19988;-64
2021/09/12 10:48:26;;;;;;;8.48;6.55;;;;;;;;;;4997504;28;20157;-64
2021/09/12 10:50:51;;;;;;;9.85;7.15;;;;;;;;;;5014890;28;20029;-64
2021/09/12 10:53:18;;;;;;;7.07;6.22;;;;;;;;;;4997389;28;20041;-64
2021/09/12 10:56:02;;;;;;;7.18;6.30;;;;;;;;;;5014877;28;20084;-63
2021/09/12 10:58:28;;;;;;;7.85;6.28;;;;;;;;;;5014899;28;20037;-64
2021/09/12 11:00:54;;;;;;;6.40;5.50;;;;;;;;;;5014975;28;20022;-64
2021/09/12 11:03:20;;;;;;;7.18;6.40;;;;;;;;;;5015267;28;20034;-64
2021/09/12 11:05:45;;;;;;;6.45;5.90;;;;;;;;;;5015250;28;20148;-64
2021/09/12 11:08:11;;;;;;;7.68;6.22;;;;;;;;;;5015225;28;20033;-64
2021/09/12 11:10:40;;;;;;;7.22;6.38;;;;;;;;;;5015185;28;20501;-64
2021/09/12 11:13:06;;;;;;;5.78;5.38;;;;;;;;;;5015191;28;20036;-64
2021/09/12 11:15:32;;;;;;;6.25;5.72;;;;;;;;;;5015147;28;20460;-64
2021/09/12 11:17:58;;;;;;;6.75;5.88;;;;;;;;;;5014928;28;20484;-63
2021/09/12 11:20:42;;;;;;;7.40;6.70;;;;;;;;;;5014980;28;20045;-64
2021/09/12 11:23:08;;;;;;;8.40;6.13;;;;;;;;;;4997555;28;20034;-64
2021/09/12 11:25:34;;;;;;;5.88;5.38;;;;;;;;;;5014969;28;20049;-64
2021/09/12 11:28:01;;;;;;;7.40;6.20;;;;;;;;;;5014803;28;20114;-64
2021/09/12 11:30:26;;;;;;;5.00;4.70;;;;;;;;;;5014047;28;20042;-64
2021/09/12 11:32:52;;;;;;;5.45;5.10;;;;;;;;;;5014651;28;20080;-64
2021/09/12 11:35:18;;;;;;;6.05;5.30;;;;;;;;;;5014792;28;20544;-64
2021/09/12 11:37:43;;;;;;;5.70;5.30;;;;;;;;;;5014641;28;20084;-64
2021/09/12 11:40:09;;;;;;;5.45;5.03;;;;;;;;;;5014624;28;20010;-64
2021/09/12 11:42:34;;;;;;;5.40;5.00;;;;;;;;;;5014553;28;20113;-64
2021/09/12 11:45:00;;;;;;;4.63;4.32;;;;;;;;;;4996952;28;20125;-64
2021/09/12 11:47:28;;;;;;;5.25;4.93;;;;;;;;;;5014194;28;20038;-64
2021/09/12 11:50:03;;;;;;;4.95;4.65;;;;;;;;;;4997055;28;20041;-64
2021/09/12 11:52:36;;;;;;;5.57;5.07;;;;;;;;;;5014498;28;20030;-64
2021/09/12 11:55:15;;;;;;;5.32;4.85;;;;;;;;;;5013699;28;20435;-64
2021/09/12 11:57:59;;;;;;;4.85;4.43;;;;;;;;;;5014436;28;20088;-64
2021/09/12 12:00:26;;;;;;;6.88;6.07;;;;;;;;;;5014339;28;20460;-64
2021/09/12 12:02:52;;;;;;;6.78;6.07;;;;;;;;;;5014211;28;20022;-64
2021/09/12 12:05:18;;;;;;;10.10;6.00;;;;;;;;;;5014157;28;20511;-64
2021/09/12 12:07:43;;;;;;;6.20;5.70;;;;;;;;;;5014113;28;20097;-64
2021/09/12 12:10:09;;;;;;;5.63;5.22;;;;;;;;;;4996618;28;20084;-64
2021/09/12 12:12:38;;;;;;;6.10;5.60;;;;;;;;;;5014038;28;20439;-64
2021/09/12 12:15:06;;;;;;;6.85;5.78;;;;;;;;;;5013969;28;20029;-64
2021/09/12 12:17:32;;;;;;;7.22;5.68;;;;;;;;;;5014032;28;20400;-64
2021/09/12 12:19:57;;;;;;;8.48;6.43;;;;;;;;;;5014051;28;20030;-63
2021/09/12 12:22:44;;;;;;;7.03;5.85;;;;;;;;;;5013884;28;20172;-64
2021/09/12 12:25:11;;;;;;;7.18;6.47;;;;;;;;;;5014047;28;20103;-64
2021/09/12 12:27:40;;;;;;;7.55;6.15;;;;;;;;;;5013909;28;20064;-64
2021/09/12 12:30:07;;;;;;;6.13;5.60;;;;;;;;;;5013395;28;20069;-64
2021/09/12 12:32:32;;;;;;;7.03;6.43;;;;;;;;;;5014041;28;20084;-64
2021/09/12 12:34:59;;;;;;;7.35;6.78;;;;;;;;;;5013704;28;20029;-64
2021/09/12 12:37:34;;;;;;;6.90;6.32;;;;;;;;;;5013703;28;20100;-64
2021/09/12 12:40:04;;;;;;;6.43;5.97;;;;;;;;;;5013676;28;20022;-64
2021/09/12 12:42:37;;;;;;;6.80;6.05;;;;;;;;;;5013602;28;20124;-64
2021/09/12 12:45:20;;;;;;;6.38;5.85;;;;;;;;;;5013810;28;20068;-64
2021/09/12 12:47:47;;;;;;;6.63;5.85;;;;;;;;;;5013539;28;20029;-64
2021/09/12 12:50:25;;;;;;;6.47;5.88;;;;;;;;;;5013587;28;20041;-64
2021/09/12 12:53:05;;;;;;;5.97;5.47;;;;;;;;;;5013671;28;20029;-64
2021/09/12 12:55:30;;;;;;;5.90;5.50;;;;;;;;;;5012378;28;20038;-64
2021/09/12 12:57:58;;;;;;;7.15;6.35;;;;;;;;;;4995996;28;20010;-64
2021/09/12 13:00:23;;;;;;;6.15;5.70;;;;;;;;;;5013370;28;20113;-64
2021/09/12 13:02:48;;;;;;;7.72;6.00;;;;;;;;;;5013304;28;20060;-64
2021/09/12 13:05:14;;;;;;;5.90;5.50;;;;;;;;;;4995747;28;20034;-64
2021/09/12 13:07:39;;;;;;;6.95;6.28;;;;;;;;;;5017373;28;20029;-64
2021/09/12 13:10:05;;;;;;;6.85;6.18;;;;;;;;;;5017517;28;20026;-64
2021/09/12 13:12:30;;;;;;;7.95;5.82;;;;;;;;;;4999726;28;20026;-64
2021/09/12 13:14:56;;;;;;;5.68;5.18;;;;;;;;;;5015938;28;20033;-64
2021/09/12 13:17:21;;;;;;;5.88;5.35;;;;;;;;;;5017149;28;20460;-64
2021/09/12 13:19:50;;;;;;;5.40;5.00;;;;;;;;;;5015896;28;20437;-63
2021/09/12 13:22:15;;;;;;;5.55;5.15;;;;;;;;;;5017160;28;20021;-64
2021/09/12 13:24:41;;;;;;;5.45;5.15;;;;;;;;;;5017194;28;20022;-64
2021/09/12 13:27:06;;;;;;;5.25;4.93;;;;;;;;;;5017173;28;20022;-64
2021/09/12 13:29:32;;;;;;;7.63;5.43;;;;;;;;;;4999371;28;20038;-64
2021/09/12 13:31:57;;;;;;;6.63;5.13;;;;;;;;;;5017085;28;20034;-64
2021/09/12 13:34:26;;;;;;;5.45;4.50;;;;;;;;;;5016947;28;20034;-63
2021/09/12 13:36:52;;;;;;;7.03;4.80;;;;;;;;;;5017050;28;20072;-64
2021/09/12 13:39:18;;;;;;;8.50;4.68;;;;;;;;;;5016830;28;20472;-64
2021/09/12 13:41:43;;;;;;;5.10;4.70;;;;;;;;;;5017019;28;20032;-64
2021/09/12 13:44:09;;;;;;;4.63;4.30;;;;;;;;;;5015537;28;20045;-64
2021/09/12 13:46:34;;;;;;;4.75;4.35;;;;;;;;;;5016746;28;20033;-63
2021/09/12 13:49:00;;;;;;;5.10;4.63;;;;;;;;;;5016764;28;20034;-64
2021/09/12 13:51:25;;;;;;;4.35;4.10;;;;;;;;;;5016744;28;20022;-64
2021/09/12 13:53:51;;;;;;;5.10;4.70;;;;;;;;;;5016422;28;20080;-64
2021/09/12 13:56:16;;;;;;;4.75;4.45;;;;;;;;;;5010022;28;20424;-64
2021/09/12 13:58:42;;;;;;;5.13;4.72;;;;;;;;;;5012316;28;20755;-64
2021/09/12 14:01:08;;;;;;;5.22;4.68;;;;;;;;;;4993643;28;20026;-67
2021/09/12 14:03:33;;;;;;;5.43;5.00;;;;;;;;;;5000166;28;20034;-66
2021/09/12 14:06:00;;;;;;;6.85;6.18;;;;;;;;;;5003986;28;20022;-67
2021/09/12 14:08:26;;;;;;;9.77;6.40;;;;;;;;;;5002218;28;20022;-67
2021/09/12 14:11:00;;;;;;;3.78;3.58;;;;;;;;;;5002785;28;20392;-67
2021/09/12 14:13:27;;;;;;;3.55;3.35;;;;;;;;;;4983979;28;20094;-66
2021/09/12 14:15:53;;;;;;;3.70;3.50;;;;;;;;;;5002226;28;20018;-68
2021/09/12 14:18:19;;;;;;;3.38;3.17;;;;;;;;;;4996033;28;20806;-67
2021/09/12 14:20:44;;;;;;;3.80;3.58;;;;;;;;;;4975451;28;20029;-67
2021/09/12 14:23:10;;;;;;;4.50;4.20;;;;;;;;;;4975651;28;20358;-66
2021/09/12 14:25:36;;;;;;;4.57;4.28;;;;;;;;;;4993232;28;20029;-66
2021/09/12 14:28:03;;;;;;;4.03;3.72;;;;;;;;;;4992684;28;20532;-66